createdAt,value
2023-03-02T00:01:51.014Z,81.06
2023-03-02T00:04:37.707Z,80.96
2023-03-02T00:07:09.937Z,80.78
2023-03-02T00:09:38.859Z,80.87
2023-03-02T00:12:07.952Z,80.92
2023-03-02T00:14:38.185Z,80.99
2023-03-02T00:17:08.169Z,80.75
2023-03-02T00:19:36.759Z,80.82
2023-03-02T00:22:05.445Z,80.68
2023-03-02T00:24:33.698Z,80.75
2023-03-02T00:27:01.804Z,80.99
2023-03-02T00:29:29.932Z,80.89
2023-03-02T00:31:58.147Z,80.80
2023-03-02T00:34:26.296Z,80.92
2023-03-02T00:36:54.386Z,80.96
2023-03-02T00:39:22.554Z,81.23
2023-03-02T00:41:50.801Z,81.10
2023-03-02T00:44:18.941Z,81.04
2023-03-02T00:46:47.134Z,80.99
2023-03-02T00:49:15.415Z,81.07
2023-03-02T00:51:43.514Z,81.15
2023-03-02T00:54:11.826Z,80.99
2023-03-02T00:56:45.954Z,80.83
2023-03-02T00:59:29.222Z,80.76
2023-03-02T01:02:00.216Z,80.92
2023-03-02T01:04:31.413Z,80.90
2023-03-02T01:07:03.444Z,81.05
2023-03-02T01:09:31.858Z,81.32
2023-03-02T01:12:00.050Z,81.19
2023-03-02T01:14:29.089Z,81.06
2023-03-02T01:16:57.302Z,81.18
2023-03-02T01:19:25.389Z,81.35
2023-03-02T01:21:53.501Z,81.09
2023-03-02T01:24:21.694Z,81.45
2023-03-02T01:26:49.845Z,81.59
2023-03-02T01:29:17.902Z,81.43
2023-03-02T01:31:46.307Z,81.17
2023-03-02T01:34:14.542Z,81.21
2023-03-02T01:36:45.767Z,81.35
2023-03-02T01:39:16.133Z,81.17
2023-03-02T01:41:45.693Z,80.94
2023-03-02T01:44:35.956Z,80.86
2023-03-02T01:47:18.801Z,80.85
2023-03-02T01:49:51.521Z,80.53
2023-03-02T01:52:20.447Z,80.78
2023-03-02T01:54:50.341Z,80.80
2023-03-02T01:57:23.720Z,80.73
2023-03-02T01:59:59.726Z,80.42
2023-03-02T02:02:28.823Z,80.71
2023-03-02T02:04:58.094Z,80.56
2023-03-02T02:07:28.022Z,80.81
2023-03-02T02:09:57.381Z,80.55
2023-03-02T02:12:25.700Z,80.58
2023-03-02T02:14:55.191Z,80.57
2023-03-02T02:17:23.263Z,80.80
2023-03-02T02:20:09.641Z,80.75
2023-03-02T02:22:40.658Z,81.00
2023-03-02T02:25:30.614Z,80.66
2023-03-02T02:27:58.618Z,80.73
2023-03-02T02:30:28.075Z,80.62
2023-03-02T02:32:57.371Z,80.65
2023-03-02T02:35:28.616Z,80.50
2023-03-02T02:38:03.191Z,80.68
2023-03-02T02:40:55.604Z,80.76
2023-03-02T02:43:23.797Z,80.78
2023-03-02T02:45:55.227Z,80.51
2023-03-02T02:48:27.168Z,80.62
2023-03-02T02:51:00.910Z,80.43
2023-03-02T02:54:00.146Z,80.67
2023-03-02T02:56:37.647Z,80.47
2023-03-02T02:59:13.642Z,80.60
2023-03-02T03:01:42.590Z,80.49
2023-03-02T03:04:14.504Z,80.41
2023-03-02T03:06:54.840Z,80.53
2023-03-02T03:09:23.445Z,80.29
2023-03-02T03:12:03.198Z,80.30
2023-03-02T03:14:39.514Z,80.50
2023-03-02T03:17:12.731Z,80.19
2023-03-02T03:19:43.753Z,80.33
2023-03-02T03:22:14.452Z,80.45
2023-03-02T03:24:44.464Z,80.18
2023-03-02T03:27:15.857Z,80.31
2023-03-02T03:29:48.417Z,80.23
2023-03-02T03:32:16.934Z,80.08
2023-03-02T03:34:45.678Z,80.03
2023-03-02T03:37:17.763Z,80.09
2023-03-02T03:39:46.086Z,80.00
2023-03-02T03:42:15.488Z,79.92
2023-03-02T03:44:43.535Z,79.91
2023-03-02T03:47:11.665Z,79.96
2023-03-02T03:49:39.694Z,80.31
2023-03-02T03:52:07.741Z,80.55
2023-03-02T03:54:36.055Z,80.49
2023-03-02T03:57:04.216Z,80.32
2023-03-02T03:59:34.226Z,80.23
2023-03-02T04:02:03.607Z,80.06
2023-03-02T04:04:34.762Z,80.06
2023-03-02T04:07:03.704Z,79.98
2023-03-02T04:09:34.108Z,80.13
2023-03-02T04:12:02.135Z,80.25
2023-03-02T04:14:30.635Z,80.35
2023-03-02T04:16:58.979Z,80.23
2023-03-02T04:19:27.041Z,80.08
2023-03-02T04:21:55.897Z,80.06
2023-03-02T04:24:24.647Z,80.08
2023-03-02T04:26:52.903Z,80.19
2023-03-02T04:29:21.114Z,80.13
2023-03-02T04:31:49.190Z,80.31
2023-03-02T04:34:17.329Z,80.19
2023-03-02T04:36:46.253Z,80.27
2023-03-02T04:39:17.327Z,80.38
2023-03-02T04:41:46.806Z,80.10
2023-03-02T04:44:16.100Z,80.18
2023-03-02T04:46:45.662Z,80.10
2023-03-02T04:49:15.470Z,80.16
2023-03-02T04:51:45.670Z,80.25
2023-03-02T04:54:17.861Z,80.00
2023-03-02T04:56:49.213Z,79.85
2023-03-02T04:59:24.595Z,79.94
2023-03-02T05:01:59.339Z,80.14
2023-03-02T05:04:28.747Z,80.11
2023-03-02T05:06:58.161Z,79.98
2023-03-02T05:09:31.101Z,79.90
2023-03-02T05:12:00.496Z,79.97
2023-03-02T05:14:29.828Z,79.92
2023-03-02T05:16:58.867Z,79.95
2023-03-02T05:19:27.036Z,79.80
2023-03-02T05:21:57.889Z,79.76
2023-03-02T05:24:26.296Z,79.80
2023-03-02T05:26:54.633Z,80.04
2023-03-02T05:29:22.962Z,79.82
2023-03-02T05:31:51.312Z,80.08
2023-03-02T05:34:19.906Z,79.96
2023-03-02T05:36:49.368Z,80.00
2023-03-02T05:39:17.416Z,80.16
2023-03-02T05:41:45.659Z,80.03
2023-03-02T05:44:13.890Z,79.96
2023-03-02T05:46:42.059Z,80.25
2023-03-02T05:49:10.852Z,79.87
2023-03-02T05:51:38.962Z,79.55
2023-03-02T05:54:07.081Z,79.62
2023-03-02T05:56:36.306Z,79.66
2023-03-02T05:59:04.421Z,79.93
2023-03-02T06:01:32.763Z,79.77
2023-03-02T06:04:01.173Z,80.03
2023-03-02T06:06:29.289Z,80.03
2023-03-02T06:08:57.457Z,80.10
2023-03-02T06:11:26.081Z,79.77
2023-03-02T06:13:54.138Z,79.91
2023-03-02T06:16:22.286Z,80.07
2023-03-02T06:18:50.401Z,80.04
2023-03-02T06:21:18.519Z,80.02
2023-03-02T06:23:46.593Z,79.99
2023-03-02T06:26:14.750Z,79.94
2023-03-02T06:28:52.006Z,80.10
2023-03-02T06:31:22.374Z,79.89
2023-03-02T06:33:50.765Z,80.25
2023-03-02T06:36:19.478Z,80.24
2023-03-02T06:38:47.754Z,79.97
2023-03-02T06:41:16.191Z,79.70
2023-03-02T06:43:44.563Z,79.92
2023-03-02T06:46:13.190Z,79.96
2023-03-02T06:48:41.283Z,80.23
2023-03-02T06:51:09.616Z,80.23
2023-03-02T06:53:37.829Z,80.15
2023-03-02T06:56:07.392Z,80.26
2023-03-02T06:58:36.556Z,79.98
2023-03-02T07:01:04.855Z,79.56
2023-03-02T07:03:33.291Z,79.82
2023-03-02T07:06:01.618Z,79.93
2023-03-02T07:08:30.173Z,80.08
2023-03-02T07:10:58.322Z,80.17
2023-03-02T07:13:26.407Z,80.21
2023-03-02T07:15:55.155Z,79.98
2023-03-02T07:18:23.323Z,79.72
2023-03-02T07:20:51.524Z,79.76
2023-03-02T07:23:19.554Z,79.64
2023-03-02T07:25:47.749Z,79.98
2023-03-02T07:28:15.772Z,79.83
2023-03-02T07:30:43.811Z,79.81
2023-03-02T07:33:11.958Z,79.65
2023-03-02T07:35:40.038Z,79.55
2023-03-02T07:38:08.090Z,79.66
2023-03-02T07:40:39.913Z,79.65
2023-03-02T07:43:08.396Z,79.59
2023-03-02T07:45:38.581Z,79.68
2023-03-02T07:48:07.421Z,79.57
2023-03-02T07:50:35.732Z,79.53
2023-03-02T07:53:03.847Z,79.65
2023-03-02T07:55:31.922Z,79.23
2023-03-02T07:57:59.980Z,79.46
2023-03-02T08:00:29.422Z,79.15
2023-03-02T08:02:57.514Z,79.22
2023-03-02T08:05:25.719Z,79.25
2023-03-02T08:07:53.950Z,79.15
2023-03-02T08:10:23.209Z,79.26
2023-03-02T08:12:52.380Z,79.26
2023-03-02T08:15:21.473Z,79.39
2023-03-02T08:17:49.517Z,79.06
2023-03-02T08:20:17.678Z,79.17
2023-03-02T08:22:45.885Z,79.08
2023-03-02T08:25:13.972Z,79.31
2023-03-02T08:27:42.017Z,79.22
2023-03-02T08:30:11.137Z,78.96
2023-03-02T08:32:39.885Z,78.90
2023-03-02T08:35:08.309Z,78.90
2023-03-02T08:37:36.445Z,79.32
2023-03-02T08:40:04.785Z,79.19
2023-03-02T08:42:32.805Z,78.82
2023-03-02T08:45:00.905Z,78.61
2023-03-02T08:47:29.047Z,78.74
2023-03-02T08:49:57.105Z,78.61
2023-03-02T08:52:25.226Z,78.82
2023-03-02T08:54:53.327Z,78.62
2023-03-02T08:57:21.510Z,78.65
2023-03-02T08:59:49.603Z,78.71
2023-03-02T09:02:18.053Z,78.86
2023-03-02T09:04:46.231Z,78.86
2023-03-02T09:07:17.520Z,78.35
2023-03-02T09:09:45.657Z,78.38
2023-03-02T09:12:13.729Z,78.61
2023-03-02T09:14:41.905Z,78.28
2023-03-02T09:17:13.066Z,78.90
2023-03-02T09:19:44.449Z,78.24
2023-03-02T09:22:12.919Z,78.70
2023-03-02T09:24:41.014Z,78.49
2023-03-02T09:27:09.032Z,77.91
2023-03-02T09:29:37.178Z,78.10
2023-03-02T09:32:05.526Z,77.98
2023-03-02T09:34:33.639Z,77.77
2023-03-02T09:37:01.682Z,77.97
2023-03-02T09:39:30.325Z,78.15
2023-03-02T09:41:58.323Z,78.48
2023-03-02T09:45:03.021Z,77.98
2023-03-02T09:48:03.890Z,78.18
2023-03-02T09:50:35.063Z,78.56
2023-03-02T09:53:08.063Z,78.49
2023-03-02T09:55:37.874Z,78.75
2023-03-02T09:58:17.515Z,78.60
2023-03-02T10:00:46.814Z,78.93
2023-03-02T10:03:32.149Z,78.83
2023-03-02T10:06:00.357Z,78.63
2023-03-02T10:08:34.307Z,78.76
2023-03-02T10:11:09.350Z,78.35
2023-03-02T10:13:44.632Z,78.22
2023-03-02T10:16:35.439Z,77.79
2023-03-02T10:19:06.902Z,78.10
2023-03-02T10:21:40.789Z,78.25
2023-03-02T10:24:28.968Z,78.76
2023-03-02T10:27:26.324Z,78.79
2023-03-02T10:30:15.939Z,78.86
2023-03-02T10:32:56.468Z,79.03
2023-03-02T10:35:26.936Z,78.97
2023-03-02T10:38:13.989Z,78.90
2023-03-02T10:41:00.164Z,79.26
2023-03-02T10:43:44.562Z,79.16
2023-03-02T10:46:14.289Z,79.11
2023-03-02T10:48:57.693Z,79.20
2023-03-02T10:51:37.593Z,79.31
2023-03-02T10:54:07.157Z,79.10
2023-03-02T10:56:36.005Z,79.13
2023-03-02T10:59:43.757Z,79.22
2023-03-02T11:02:25.325Z,79.11
2023-03-02T11:04:59.692Z,78.82
2023-03-02T11:07:29.915Z,78.30
2023-03-02T11:10:15.482Z,78.88
2023-03-02T11:12:47.876Z,78.95
2023-03-02T11:15:27.938Z,78.92
2023-03-02T11:18:20.617Z,78.77
2023-03-02T11:20:53.040Z,79.18
2023-03-02T11:23:27.920Z,78.32
2023-03-02T11:26:05.258Z,78.17
2023-03-02T11:28:52.404Z,78.68
2023-03-02T11:31:35.476Z,77.65
2023-03-02T11:34:26.252Z,77.39
2023-03-02T11:37:16.940Z,77.67
2023-03-02T11:39:55.057Z,78.55
2023-03-02T11:42:44.382Z,78.53
2023-03-02T11:45:16.342Z,78.08
2023-03-02T11:48:02.607Z,77.42
2023-03-02T11:50:47.089Z,77.45
2023-03-02T11:53:19.517Z,77.62
2023-03-02T11:55:49.639Z,77.81
2023-03-02T11:58:19.847Z,78.32
2023-03-02T12:00:49.681Z,78.31
2023-03-02T12:03:33.111Z,78.38
2023-03-02T12:06:05.256Z,78.77
2023-03-02T12:08:42.075Z,78.77
2023-03-02T12:11:19.423Z,78.42
2023-03-02T12:13:50.337Z,78.38
2023-03-02T12:16:33.989Z,78.41
2023-03-02T12:19:17.488Z,77.87
2023-03-02T12:21:59.146Z,77.77
2023-03-02T12:24:29.072Z,77.11
2023-03-02T12:27:15.468Z,76.26
2023-03-02T12:29:50.015Z,75.82
2023-03-02T12:32:29.060Z,75.62
2023-03-02T12:35:01.687Z,76.56
2023-03-02T12:37:36.809Z,76.32
2023-03-02T12:40:26.771Z,75.95
2023-03-02T12:43:25.474Z,75.32
2023-03-02T12:45:56.542Z,75.45
2023-03-02T12:48:30.817Z,74.23
2023-03-02T12:51:05.190Z,73.92
2023-03-02T12:53:34.065Z,73.87
2023-03-02T12:56:02.162Z,74.12
2023-03-02T12:58:30.312Z,74.39
2023-03-02T13:01:01.717Z,74.61
2023-03-02T13:03:31.289Z,74.58
2023-03-02T13:06:14.568Z,74.51
2023-03-02T13:08:46.702Z,74.42
2023-03-02T13:11:22.844Z,74.70
2023-03-02T13:13:51.656Z,74.27
2023-03-02T13:16:27.571Z,74.07
2023-03-02T13:18:58.940Z,73.76
2023-03-02T13:21:37.936Z,74.15
2023-03-02T13:24:44.023Z,73.85
2023-03-02T13:27:24.252Z,74.16
2023-03-02T13:29:53.187Z,73.46
2023-03-02T13:32:36.029Z,73.54
2023-03-02T13:35:17.090Z,72.88
2023-03-02T13:37:45.580Z,73.04
2023-03-02T13:40:23.036Z,72.81
2023-03-02T13:42:51.485Z,72.01
2023-03-02T13:45:28.571Z,72.24
2023-03-02T13:47:59.057Z,72.17
2023-03-02T13:50:30.903Z,72.10
2023-03-02T13:53:02.678Z,71.13
2023-03-02T13:55:31.354Z,71.21
2023-03-02T13:58:00.587Z,71.37
2023-03-02T14:00:34.358Z,71.52
2023-03-02T14:03:02.881Z,71.74
2023-03-02T14:05:34.576Z,71.86
2023-03-02T14:08:03.152Z,71.45
2023-03-02T14:10:31.258Z,71.59
2023-03-02T14:13:05.498Z,71.08
2023-03-02T14:15:37.036Z,70.99
2023-03-02T14:18:30.343Z,70.80
2023-03-02T14:20:59.000Z,70.62
2023-03-02T14:23:27.802Z,70.49
2023-03-02T14:25:57.072Z,70.35
2023-03-02T14:28:36.209Z,70.19
2023-03-02T14:31:05.145Z,70.19
2023-03-02T14:33:33.362Z,70.35
2023-03-02T14:36:01.574Z,70.27
2023-03-02T14:38:30.953Z,69.84
2023-03-02T14:40:59.123Z,69.17
2023-03-02T14:43:27.283Z,69.61
2023-03-02T14:45:55.381Z,69.29
2023-03-02T14:48:23.479Z,69.21
2023-03-02T14:50:52.065Z,69.04
2023-03-02T14:53:28.035Z,69.53
2023-03-02T14:55:56.619Z,69.61
2023-03-02T14:58:31.581Z,69.59
2023-03-02T15:01:01.308Z,69.83
2023-03-02T15:03:29.741Z,69.47
2023-03-02T15:06:02.118Z,69.77
2023-03-02T15:08:30.668Z,70.00
2023-03-02T15:10:58.768Z,69.64
2023-03-02T15:13:26.902Z,70.20
2023-03-02T15:15:55.509Z,70.22
2023-03-02T15:18:23.660Z,70.16
2023-03-02T15:20:51.729Z,69.83
2023-03-02T15:23:19.964Z,69.85
2023-03-02T15:25:48.108Z,69.97
2023-03-02T15:28:16.268Z,70.11
2023-03-02T15:30:44.436Z,70.18
2023-03-02T15:33:12.519Z,70.12
2023-03-02T15:35:42.037Z,70.26
2023-03-02T15:38:10.856Z,70.19
2023-03-02T15:40:38.894Z,70.18
2023-03-02T15:43:07.019Z,70.14
2023-03-02T15:45:35.147Z,70.06
2023-03-02T15:48:04.470Z,69.98
2023-03-02T15:50:32.530Z,70.12
2023-03-02T15:53:00.635Z,70.28
2023-03-02T15:55:28.682Z,70.57
2023-03-02T15:57:58.480Z,71.28
2023-03-02T16:00:27.380Z,71.67
2023-03-02T16:02:55.418Z,72.12
2023-03-02T16:05:23.630Z,71.94
2023-03-02T16:07:51.844Z,72.31
2023-03-02T16:10:20.894Z,72.58
2023-03-02T16:12:49.092Z,72.46
2023-03-02T16:15:17.375Z,72.69
2023-03-02T16:17:45.410Z,72.59
2023-03-02T16:20:13.646Z,72.81
2023-03-02T16:22:41.756Z,72.96
2023-03-02T16:25:10.051Z,73.01
2023-03-02T16:27:38.200Z,72.94
2023-03-02T16:30:06.966Z,73.09
2023-03-02T16:32:35.083Z,73.11
2023-03-02T16:35:03.186Z,73.08
2023-03-02T16:37:31.432Z,72.89
2023-03-02T16:39:59.661Z,73.09
2023-03-02T16:42:30.449Z,73.19
2023-03-02T16:44:58.715Z,73.23
2023-03-02T16:47:31.045Z,73.21
2023-03-02T16:49:59.487Z,73.31
2023-03-02T16:52:27.668Z,73.19
2023-03-02T16:54:56.537Z,73.42
2023-03-02T16:57:26.503Z,73.36
2023-03-02T16:59:55.652Z,73.21
2023-03-02T17:02:25.588Z,73.58
2023-03-02T17:05:06.307Z,73.61
2023-03-02T17:07:34.712Z,73.73
2023-03-02T17:10:05.183Z,73.75
2023-03-02T17:12:33.627Z,73.71
2023-03-02T17:15:01.717Z,73.52
2023-03-02T17:17:29.875Z,73.72
2023-03-02T17:19:58.827Z,73.32
2023-03-02T17:22:26.914Z,73.29
2023-03-02T17:24:55.042Z,73.36
2023-03-02T17:27:26.022Z,73.25
2023-03-02T17:29:55.264Z,73.41
2023-03-02T17:32:24.289Z,73.57
2023-03-02T17:34:54.910Z,73.81
2023-03-02T17:37:23.210Z,73.86
2023-03-02T17:39:52.567Z,73.67
2023-03-02T17:42:23.438Z,73.88
2023-03-02T17:44:51.628Z,73.65
2023-03-02T17:47:20.570Z,73.80
2023-03-02T17:49:52.733Z,74.01
2023-03-02T17:52:23.529Z,73.66
2023-03-02T17:54:54.111Z,73.67
2023-03-02T17:57:23.250Z,73.63
2023-03-02T17:59:51.979Z,73.51
2023-03-02T18:02:20.242Z,73.52
2023-03-02T18:04:48.857Z,73.48
2023-03-02T18:07:16.938Z,73.63
2023-03-02T18:09:47.728Z,73.88
2023-03-02T18:12:25.189Z,73.94
2023-03-02T18:15:13.766Z,73.93
2023-03-02T18:17:54.520Z,73.73
2023-03-02T18:20:23.400Z,73.94
2023-03-02T18:22:51.451Z,74.16
2023-03-02T18:25:22.023Z,74.08
2023-03-02T18:27:50.310Z,74.10
2023-03-02T18:30:22.284Z,74.07
2023-03-02T18:32:50.612Z,74.24
2023-03-02T18:35:19.597Z,74.35
2023-03-02T18:37:50.072Z,74.56
2023-03-02T18:40:26.636Z,74.38
2023-03-02T18:43:40.657Z,74.63
2023-03-02T18:46:21.584Z,74.82
2023-03-02T18:49:00.791Z,74.89
2023-03-02T18:51:53.384Z,74.90
2023-03-02T18:54:21.646Z,75.15
2023-03-02T18:56:50.107Z,75.14
2023-03-02T18:59:19.016Z,75.08
2023-03-02T19:01:47.475Z,75.28
2023-03-02T19:04:15.722Z,75.87
2023-03-02T19:07:00.914Z,76.47
2023-03-02T19:09:39.608Z,76.89
2023-03-02T19:12:08.134Z,77.19
2023-03-02T19:14:43.284Z,77.52
2023-03-02T19:17:24.990Z,77.71
2023-03-02T19:19:53.211Z,77.96
2023-03-02T19:22:22.943Z,77.83
2023-03-02T19:24:52.750Z,78.11
2023-03-02T19:27:20.917Z,78.06
2023-03-02T19:29:49.225Z,78.17
2023-03-02T19:32:22.077Z,78.01
2023-03-02T19:34:50.245Z,78.31
2023-03-02T19:37:18.592Z,78.34
2023-03-02T19:39:49.951Z,78.46
2023-03-02T19:42:20.867Z,78.27
2023-03-02T19:44:53.420Z,78.22
2023-03-02T19:47:24.792Z,78.16
2023-03-02T19:49:55.929Z,78.31
2023-03-02T19:52:30.823Z,78.07
2023-03-02T19:54:59.010Z,78.45
2023-03-02T19:57:27.331Z,78.29
2023-03-02T19:59:56.475Z,78.41
2023-03-02T20:02:24.735Z,78.29
2023-03-02T20:04:53.555Z,78.45
2023-03-02T20:07:21.857Z,78.76
2023-03-02T20:09:50.448Z,78.85
2023-03-02T20:12:20.028Z,78.33
2023-03-02T20:14:49.516Z,78.62
2023-03-02T20:17:19.821Z,78.33
2023-03-02T20:19:49.564Z,78.50
2023-03-02T20:22:17.728Z,78.61
2023-03-02T20:24:45.892Z,78.45
2023-03-02T20:27:14.205Z,78.35
2023-03-02T20:29:43.819Z,78.36
2023-03-02T20:32:13.847Z,78.20
2023-03-02T20:34:43.442Z,78.42
2023-03-02T20:37:15.130Z,78.79
2023-03-02T20:39:50.314Z,78.84
2023-03-02T20:42:19.118Z,78.76
2023-03-02T20:44:47.357Z,78.51
2023-03-02T20:47:16.486Z,78.71
2023-03-02T20:49:44.703Z,78.48
2023-03-02T20:52:13.033Z,78.40
2023-03-02T20:54:43.602Z,78.42
2023-03-02T20:57:16.968Z,78.23
2023-03-02T20:59:46.522Z,78.38
2023-03-02T21:02:17.284Z,77.97
2023-03-02T21:04:46.188Z,77.95
2023-03-02T21:07:17.458Z,77.82
2023-03-02T21:09:46.838Z,77.68
2023-03-02T21:12:15.337Z,77.76
2023-03-02T21:14:43.508Z,77.72
2023-03-02T21:17:11.828Z,77.56
2023-03-02T21:19:40.207Z,77.67
2023-03-02T21:22:08.386Z,77.62
2023-03-02T21:24:36.585Z,77.79
2023-03-02T21:27:11.099Z,77.64
2023-03-02T21:29:42.795Z,77.32
2023-03-02T21:32:11.190Z,77.71
2023-03-02T21:34:39.829Z,77.65
2023-03-02T21:37:10.085Z,77.55
2023-03-02T21:39:40.034Z,77.45
2023-03-02T21:42:08.175Z,77.52
2023-03-02T21:44:36.254Z,77.24
2023-03-02T21:47:04.438Z,77.56
2023-03-02T21:49:32.661Z,77.47
2023-03-02T21:52:00.949Z,77.40
2023-03-02T21:54:29.067Z,77.33
2023-03-02T21:56:57.221Z,77.25
2023-03-02T21:59:25.336Z,77.12
2023-03-02T22:01:53.499Z,77.23
2023-03-02T22:04:21.785Z,77.16
2023-03-02T22:06:51.297Z,77.30
2023-03-02T22:09:19.726Z,77.09
2023-03-02T22:11:49.106Z,77.33
2023-03-02T22:14:17.892Z,77.14
2023-03-02T22:16:48.296Z,77.16
2023-03-02T22:19:38.104Z,77.27
2023-03-02T22:22:24.408Z,77.16
2023-03-02T22:24:54.341Z,76.99
2023-03-02T22:27:31.472Z,77.17
2023-03-02T22:30:03.159Z,77.06
2023-03-02T22:32:37.578Z,77.28
2023-03-02T22:35:21.360Z,76.94
2023-03-02T22:37:52.082Z,76.97
2023-03-02T22:40:29.857Z,77.10
2023-03-02T22:43:31.995Z,76.85
2023-03-02T22:46:17.528Z,77.09
2023-03-02T22:48:48.666Z,76.98
2023-03-02T22:51:22.594Z,76.90
2023-03-02T22:53:59.406Z,76.74
2023-03-02T22:56:42.850Z,76.90
2023-03-02T22:59:26.089Z,76.95
2023-03-02T23:02:00.133Z,76.85
2023-03-02T23:04:37.116Z,76.82
2023-03-02T23:07:16.986Z,76.83
2023-03-02T23:09:45.264Z,76.90
2023-03-02T23:12:24.474Z,76.74
2023-03-02T23:14:58.208Z,76.51
2023-03-02T23:17:40.684Z,76.68
2023-03-02T23:20:12.466Z,76.85
2023-03-02T23:22:41.085Z,76.54
2023-03-02T23:25:09.554Z,76.58
2023-03-02T23:27:37.614Z,76.63
2023-03-02T23:30:06.332Z,76.30
2023-03-02T23:32:35.241Z,76.49
2023-03-02T23:35:03.878Z,76.42
2023-03-02T23:37:32.627Z,76.51
2023-03-02T23:40:00.721Z,76.60
2023-03-02T23:42:28.876Z,76.27
2023-03-02T23:44:57.081Z,76.55
2023-03-02T23:47:25.242Z,76.47
2023-03-02T23:49:53.414Z,76.69
2023-03-02T23:52:21.592Z,76.60
2023-03-02T23:54:49.691Z,76.41
2023-03-02T23:57:17.935Z,76.86
2023-03-02T23:59:46.053Z,76.63
